Masonville, Iowa
Current Conditions -  °F | °C
As of 4:15 AM on Friday 31 Oct 2014 (Local Time) from KIIB Reporting Station
Clear Clear  
Wind Chill: 17°   Ceiling: Unl
Heat Index: 30°   Visibility: 10mi
Dew Point: 19°   Wind: 22mph
Humidity: 64%   Direction: 350°N
Pressure: 30.3"   Gusts: 26mph
Location:  42.48°N, 91.59°W
Report Text: KIIB 310915Z AUTO 35019G23KT 10SM CLR M01/M07 A3030 RMK AO2
Loading
Personal Weather Stations






























Interactive Weather Map
Tropical Storm Tracking
New forecast layout! Learn more

10-Day Weather Forecast

Advertisements
Track Severe Weather on mobile